createdAt,value
2018-11-23T00:00:21.686Z,102060.94
2018-11-23T00:02:50.970Z,102061.38
2018-11-23T00:05:19.956Z,102062.67
2018-11-23T00:07:49.061Z,102063.96
2018-11-23T00:10:19.925Z,102059.24
2018-11-23T00:12:49.475Z,102056.22
2018-11-23T00:15:20.892Z,102057.95
2018-11-23T00:17:49.509Z,102052.35
2018-11-23T00:20:20.202Z,102055.38
2018-11-23T00:22:49.688Z,102061.82
2018-11-23T00:25:19.590Z,102058.36
2018-11-23T00:27:48.854Z,102063.08
2018-11-23T00:30:20.056Z,102060.48
2018-11-23T00:32:48.951Z,102063.92
2018-11-23T00:35:20.396Z,102057.06
2018-11-23T00:37:49.563Z,102063.52
2018-11-23T00:40:18.846Z,102059.20
2018-11-23T00:42:47.574Z,102060.94
2018-11-23T00:45:17.736Z,102065.25
2018-11-23T00:47:47.416Z,102066.09
2018-11-23T00:50:19.699Z,102060.09
2018-11-23T00:52:48.628Z,102070.41
2018-11-23T00:55:18.412Z,102066.53
2018-11-23T00:57:47.716Z,102066.09
2018-11-23T01:00:24.107Z,102069.56
2018-11-23T01:02:53.263Z,102071.30
2018-11-23T01:05:21.788Z,102073.91
2018-11-23T01:07:50.334Z,102068.79
2018-11-23T01:10:20.051Z,102064.06
2018-11-23T01:12:50.472Z,102064.09
2018-11-23T01:15:18.854Z,102058.09
2018-11-23T01:17:47.293Z,102054.20
2018-11-23T01:20:17.846Z,102059.82
2018-11-23T01:22:46.669Z,102062.41
2018-11-23T01:25:17.044Z,102052.95
2018-11-23T01:27:47.126Z,102049.05
2018-11-23T01:30:27.556Z,102047.75
2018-11-23T01:32:56.042Z,102039.58
2018-11-23T01:35:26.176Z,102049.91
2018-11-23T01:37:55.247Z,102049.03
2018-11-23T01:40:26.065Z,102046.91
2018-11-23T01:42:54.795Z,102050.34
2018-11-23T01:45:23.309Z,102055.52
2018-11-23T01:47:51.836Z,102055.08
2018-11-23T01:50:28.391Z,102060.68
2018-11-23T01:52:57.538Z,102059.83
2018-11-23T01:55:26.526Z,102071.45
2018-11-23T01:57:54.944Z,102080.91
2018-11-23T02:00:27.697Z,102081.73
2018-11-23T02:02:56.608Z,102081.31
2018-11-23T02:05:24.986Z,102081.28
2018-11-23T02:07:53.444Z,102077.82
2018-11-23T02:10:21.928Z,102075.65
2018-11-23T02:12:51.177Z,102078.63
2018-11-23T02:15:20.697Z,102074.77
2018-11-23T02:17:49.614Z,102068.75
2018-11-23T02:20:19.830Z,102070.48
2018-11-23T02:22:48.902Z,102063.19
2018-11-23T02:25:17.309Z,102070.92
2018-11-23T02:27:45.791Z,102069.23
2018-11-23T02:30:18.139Z,102070.52
2018-11-23T02:32:46.584Z,102052.48
2018-11-23T02:35:15.367Z,102060.66
2018-11-23T02:37:44.148Z,102058.52
2018-11-23T02:40:14.213Z,102061.10
2018-11-23T02:42:42.900Z,102052.51
2018-11-23T02:45:17.175Z,102044.32
2018-11-23T02:47:47.811Z,102047.34
2018-11-23T02:50:16.631Z,102048.19
2018-11-23T02:52:45.692Z,102049.03
2018-11-23T02:55:16.793Z,102044.30
2018-11-23T02:57:45.205Z,102036.12
2018-11-23T03:00:16.797Z,102032.19
2018-11-23T03:02:51.008Z,102033.92
2018-11-23T03:05:22.378Z,102026.16
2018-11-23T03:07:51.949Z,102028.31
2018-11-23T03:10:21.648Z,102030.48
2018-11-23T03:12:51.091Z,102027.92
2018-11-23T03:15:21.035Z,102026.20
2018-11-23T03:17:50.426Z,102026.20
2018-11-23T03:20:22.669Z,102031.81
2018-11-23T03:22:51.546Z,102032.67
2018-11-23T03:25:22.199Z,102032.27
2018-11-23T03:27:51.390Z,102033.13
2018-11-23T03:30:22.312Z,102028.41
2018-11-23T03:32:53.852Z,102019.37
2018-11-23T03:35:23.379Z,102025.39
2018-11-23T03:37:51.817Z,102024.94
2018-11-23T03:40:20.351Z,102027.55
2018-11-23T03:42:48.899Z,102023.64
2018-11-23T03:45:17.559Z,102024.95
2018-11-23T03:47:46.230Z,102022.36
2018-11-23T03:50:15.537Z,102020.23
2018-11-23T03:52:44.386Z,102022.37
2018-11-23T03:55:12.810Z,102037.44
2018-11-23T03:57:41.264Z,102016.78
2018-11-23T04:00:17.435Z,102021.94
2018-11-23T04:02:43.698Z,102021.52
2018-11-23T04:05:12.349Z,102029.66
2018-11-23T04:07:40.812Z,102024.51
2018-11-23T04:10:10.971Z,102027.92
2018-11-23T04:12:40.646Z,102023.61
2018-11-23T04:15:10.105Z,102011.94
2018-11-23T04:17:39.799Z,102014.12
2018-11-23T04:20:10.572Z,102013.66
2018-11-23T04:22:40.433Z,102020.48
2018-11-23T04:25:09.831Z,102020.03
2018-11-23T04:27:38.251Z,102012.69
2018-11-23T04:30:11.489Z,102012.28
2018-11-23T04:32:40.411Z,102011.81
2018-11-23T04:35:12.289Z,101993.25
2018-11-23T04:37:41.147Z,101999.23
2018-11-23T04:40:11.877Z,101994.88
2018-11-23T04:42:40.771Z,101998.70
2018-11-23T04:45:10.149Z,101996.97
2018-11-23T04:47:38.999Z,101997.86
2018-11-23T04:50:09.795Z,102007.72
2018-11-23T04:52:38.231Z,102008.16
2018-11-23T04:55:07.879Z,102010.33
2018-11-23T04:57:36.456Z,102004.69
2018-11-23T05:00:08.261Z,102000.34
2018-11-23T05:02:36.757Z,101994.33
2018-11-23T05:05:07.110Z,101994.30
2018-11-23T05:07:35.483Z,101990.84
2018-11-23T05:10:05.514Z,101987.84
2018-11-23T05:12:33.875Z,101991.30
2018-11-23T05:15:02.232Z,101985.70
2018-11-23T05:17:30.785Z,101986.16
2018-11-23T05:19:59.183Z,101983.55
2018-11-23T05:22:27.549Z,101982.67
2018-11-23T05:24:56.148Z,101978.38
2018-11-23T05:27:24.474Z,101977.06
2018-11-23T05:29:53.476Z,101973.66
2018-11-23T05:32:22.012Z,101975.00
2018-11-23T05:34:50.468Z,101984.53
2018-11-23T05:37:18.887Z,101995.33
2018-11-23T05:39:48.207Z,101982.41
2018-11-23T05:42:18.519Z,101975.10
2018-11-23T05:44:47.104Z,101975.48
2018-11-23T05:47:15.652Z,101979.34
2018-11-23T05:49:44.050Z,101972.92
2018-11-23T05:52:12.535Z,101975.06
2018-11-23T05:54:40.984Z,101977.65
2018-11-23T05:57:09.280Z,101978.47
2018-11-23T05:59:37.979Z,101976.29
2018-11-23T06:02:06.372Z,101976.72
2018-11-23T06:04:34.840Z,101974.09
2018-11-23T06:07:03.209Z,101969.72
2018-11-23T06:09:31.883Z,101973.13
2018-11-23T06:12:00.242Z,101972.26
2018-11-23T06:14:28.623Z,101984.27
2018-11-23T06:16:57.053Z,101977.35
2018-11-23T06:19:25.485Z,101981.20
2018-11-23T06:21:54.099Z,101975.58
2018-11-23T06:24:23.033Z,101975.95
2018-11-23T06:26:51.430Z,101969.48
2018-11-23T06:29:19.940Z,101966.44
2018-11-23T06:31:48.340Z,101963.39
2018-11-23T06:34:16.787Z,101966.80
2018-11-23T06:36:45.629Z,101970.22
2018-11-23T06:39:14.804Z,101968.91
2018-11-23T06:41:43.125Z,101969.41
2018-11-23T06:44:11.678Z,101969.78
2018-11-23T06:46:40.172Z,101967.59
2018-11-23T06:49:08.480Z,101966.69
2018-11-23T06:51:37.022Z,101973.23
2018-11-23T06:54:05.583Z,101964.17
2018-11-23T06:56:33.859Z,101957.75
2018-11-23T06:59:03.453Z,101955.12
2018-11-23T07:01:31.800Z,101956.42
2018-11-23T07:04:00.182Z,101955.93
2018-11-23T07:06:28.780Z,101953.39
2018-11-23T07:08:57.074Z,101952.55
2018-11-23T07:11:25.376Z,101958.16
2018-11-23T07:13:53.795Z,101956.77
2018-11-23T07:16:22.165Z,101949.86
2018-11-23T07:18:50.801Z,101954.11
2018-11-23T07:21:21.513Z,101952.75
2018-11-23T07:23:47.683Z,101949.33
2018-11-23T07:26:16.333Z,101953.62
2018-11-23T07:28:45.480Z,101956.14
2018-11-23T07:31:13.958Z,101962.64
2018-11-23T07:33:42.495Z,101963.50
2018-11-23T07:36:10.851Z,101966.00
2018-11-23T07:38:39.141Z,101966.36
2018-11-23T07:41:25.322Z,101978.30
2018-11-23T07:43:53.797Z,101975.27
2018-11-23T07:46:21.995Z,101971.15
2018-11-23T07:48:50.520Z,101976.77
2018-11-23T07:51:18.964Z,101985.77
2018-11-23T07:53:47.371Z,101980.50
2018-11-23T07:56:15.935Z,101980.12
2018-11-23T07:58:44.345Z,101967.13
2018-11-23T08:01:13.055Z,101964.69
2018-11-23T08:03:41.590Z,101968.72
2018-11-23T08:06:10.317Z,101970.95
2018-11-23T08:08:38.611Z,101971.44
2018-11-23T08:11:08.096Z,101977.59
2018-11-23T08:13:37.460Z,101975.95
2018-11-23T08:16:06.097Z,101974.33
2018-11-23T08:18:35.112Z,101976.95
2018-11-23T08:21:03.521Z,101974.80
2018-11-23T08:23:32.097Z,101967.44
2018-11-23T08:26:00.552Z,101963.59
2018-11-23T08:28:28.880Z,101948.02
2018-11-23T08:30:57.238Z,101963.95
2018-11-23T08:33:26.520Z,101957.03
2018-11-23T08:35:54.880Z,101963.07
2018-11-23T08:38:25.088Z,101957.74
2018-11-23T08:40:53.461Z,101951.59
2018-11-23T08:43:22.069Z,101952.04
2018-11-23T08:45:50.505Z,101949.88
2018-11-23T08:48:19.125Z,101951.58
2018-11-23T08:50:47.488Z,101947.28
2018-11-23T08:53:16.026Z,101944.19
2018-11-23T08:55:44.729Z,101948.97
2018-11-23T08:58:13.400Z,101943.73
2018-11-23T09:00:41.934Z,101946.34
2018-11-23T09:03:11.802Z,101943.73
2018-11-23T09:05:40.265Z,101939.30
2018-11-23T09:08:08.575Z,101943.06
2018-11-23T09:10:37.178Z,101943.31
2018-11-23T09:13:05.667Z,101937.97
2018-11-23T09:15:34.113Z,101932.19
2018-11-23T09:18:02.545Z,101934.51
2018-11-23T09:20:31.037Z,101929.58
2018-11-23T09:22:59.248Z,101935.36
2018-11-23T09:25:27.646Z,101951.36
2018-11-23T09:27:56.111Z,101953.72
2018-11-23T09:30:25.691Z,101951.37
2018-11-23T09:32:54.997Z,101940.62
2018-11-23T09:35:23.731Z,101949.80
2018-11-23T09:37:52.439Z,101944.27
2018-11-23T09:40:23.174Z,101950.05
2018-11-23T09:42:52.009Z,101948.16
2018-11-23T09:45:22.438Z,101963.28
2018-11-23T09:47:52.426Z,101960.67
2018-11-23T09:50:22.114Z,101955.11
2018-11-23T09:52:52.058Z,101948.39
2018-11-23T09:55:21.144Z,101942.88
2018-11-23T09:57:49.499Z,101940.73
2018-11-23T10:00:22.432Z,101931.66
2018-11-23T10:02:52.060Z,101931.49
2018-11-23T10:05:20.821Z,101927.05
2018-11-23T10:07:50.711Z,101934.91
2018-11-23T10:10:19.954Z,101937.22
2018-11-23T10:12:48.291Z,101933.86
2018-11-23T10:15:17.549Z,101938.78
2018-11-23T10:17:46.106Z,101932.44
2018-11-23T10:20:16.917Z,101929.05
2018-11-23T10:22:45.621Z,101922.87
2018-11-23T10:25:15.403Z,101924.91
2018-11-23T10:27:44.852Z,101916.72
2018-11-23T10:30:16.313Z,101919.80
2018-11-23T10:32:45.634Z,101910.38
2018-11-23T10:35:14.140Z,101899.11
2018-11-23T10:37:43.500Z,101895.10
2018-11-23T10:40:14.912Z,101887.73
2018-11-23T10:42:43.774Z,101884.70
2018-11-23T10:45:28.517Z,101882.24
2018-11-23T10:47:57.804Z,101870.64
2018-11-23T10:50:30.621Z,101869.48
2018-11-23T10:52:59.212Z,101865.16
2018-11-23T10:55:29.085Z,101862.08
2018-11-23T10:57:59.422Z,101855.70
2018-11-23T11:00:33.435Z,101847.44
2018-11-23T11:03:03.792Z,101846.70
2018-11-23T11:05:41.575Z,101839.92
2018-11-23T11:08:10.133Z,101847.41
2018-11-23T11:10:38.547Z,101838.97
2018-11-23T11:13:07.121Z,101838.95
2018-11-23T11:15:35.472Z,101848.75
2018-11-23T11:18:05.019Z,101850.37
2018-11-23T11:20:33.507Z,101840.02
2018-11-23T11:23:01.852Z,101843.37
2018-11-23T11:25:30.223Z,101834.98
2018-11-23T11:27:58.665Z,101826.20
2018-11-23T11:30:27.177Z,101818.10
2018-11-23T11:32:55.680Z,101822.60
2018-11-23T11:35:24.161Z,101819.25
2018-11-23T11:37:52.467Z,101810.87
2018-11-23T11:40:20.870Z,101804.59
2018-11-23T11:42:49.349Z,101815.36
2018-11-23T11:45:19.597Z,101807.83
2018-11-23T11:47:48.329Z,101730.20
2018-11-23T11:50:16.680Z,101803.42
2018-11-23T11:52:46.611Z,101798.02
2018-11-23T11:55:16.256Z,101797.58
2018-11-23T11:57:45.282Z,101794.73
2018-11-23T12:00:16.600Z,101791.84
2018-11-23T12:02:45.442Z,101785.30
2018-11-23T12:05:14.116Z,101789.58
2018-11-23T12:07:42.464Z,101782.11
2018-11-23T12:10:14.551Z,101779.78
2018-11-23T12:12:42.961Z,101780.38
2018-11-23T12:15:12.676Z,101772.44
2018-11-23T12:17:41.595Z,101777.42
2018-11-23T12:20:14.151Z,101771.21
2018-11-23T12:22:42.681Z,101771.66
2018-11-23T12:25:11.158Z,101763.39
2018-11-23T12:27:39.432Z,101765.55
2018-11-23T12:30:10.893Z,101761.25
2018-11-23T12:32:39.853Z,101763.72
2018-11-23T12:35:10.068Z,101754.20
2018-11-23T12:37:38.606Z,101747.70
2018-11-23T12:40:09.440Z,101744.38
2018-11-23T12:42:37.836Z,101742.45
2018-11-23T12:45:09.232Z,101739.36
2018-11-23T12:47:37.674Z,101737.20
2018-11-23T12:50:11.429Z,101739.98
2018-11-23T12:52:39.745Z,101736.55
2018-11-23T12:55:08.659Z,101727.55
2018-11-23T12:57:37.189Z,101729.99
2018-11-23T13:00:12.421Z,101726.37
2018-11-23T13:02:40.944Z,101723.11
2018-11-23T13:05:09.460Z,101723.17
2018-11-23T13:07:38.779Z,101724.19
2018-11-23T13:10:07.413Z,101726.34
2018-11-23T13:12:35.822Z,101725.99
2018-11-23T13:15:04.511Z,101704.83
2018-11-23T13:17:33.499Z,101714.50
2018-11-23T13:20:01.879Z,101714.58
2018-11-23T13:22:30.491Z,101712.94
2018-11-23T13:24:58.948Z,101711.75
2018-11-23T13:27:27.202Z,101702.62
2018-11-23T13:29:55.726Z,101706.91
2018-11-23T13:32:24.095Z,101696.45
2018-11-23T13:34:52.458Z,101684.78
2018-11-23T13:37:20.895Z,101688.24
2018-11-23T13:39:49.936Z,101685.78
2018-11-23T13:42:18.601Z,101691.80
2018-11-23T13:44:47.161Z,101688.40
2018-11-23T13:47:15.692Z,101686.55
2018-11-23T13:49:44.196Z,101681.29
2018-11-23T13:52:12.719Z,101681.23
2018-11-23T13:54:41.921Z,101689.52
2018-11-23T13:57:10.422Z,101687.33
2018-11-23T13:59:38.722Z,101681.31
2018-11-23T14:02:07.076Z,101685.49
2018-11-23T14:04:35.523Z,101681.98
2018-11-23T14:07:04.222Z,101687.02
2018-11-23T14:09:32.620Z,101685.49
2018-11-23T14:12:01.177Z,101682.14
2018-11-23T14:14:29.789Z,101673.72
2018-11-23T14:16:58.325Z,101676.66
2018-11-23T14:19:26.675Z,101676.58
2018-11-23T14:21:55.171Z,101672.03
2018-11-23T14:24:23.795Z,101661.90
2018-11-23T14:26:52.160Z,101664.83
2018-11-23T14:29:20.618Z,101664.59
2018-11-23T14:31:49.002Z,101655.01
2018-11-23T14:34:17.558Z,101652.08
2018-11-23T14:36:46.042Z,101648.88
2018-11-23T14:39:14.433Z,101656.99
2018-11-23T14:41:42.922Z,101641.87
2018-11-23T14:44:15.016Z,101643.73
2018-11-23T14:46:43.598Z,101643.65
2018-11-23T14:49:12.662Z,101639.38
2018-11-23T14:51:41.105Z,101641.66
2018-11-23T14:54:10.094Z,101644.72
2018-11-23T14:56:38.938Z,101637.74
2018-11-23T14:59:07.458Z,101636.30
2018-11-23T15:01:35.835Z,101634.14
2018-11-23T15:04:04.313Z,101635.16
2018-11-23T15:06:32.635Z,101630.95
2018-11-23T15:09:01.729Z,101639.20
2018-11-23T15:11:30.148Z,101640.97
2018-11-23T15:13:58.650Z,101642.56
2018-11-23T15:16:27.102Z,101646.68
2018-11-23T15:18:55.577Z,101654.41
2018-11-23T15:21:24.022Z,101646.33
2018-11-23T15:23:52.767Z,101652.86
2018-11-23T15:26:21.913Z,101650.94
2018-11-23T15:28:50.737Z,101650.31
2018-11-23T15:31:19.187Z,101648.14
2018-11-23T15:33:47.548Z,101647.05
2018-11-23T15:36:15.935Z,101645.98
2018-11-23T15:38:44.510Z,101647.64
2018-11-23T15:41:13.180Z,101640.28
2018-11-23T15:43:42.226Z,101647.30
2018-11-23T15:46:10.933Z,101640.75
2018-11-23T15:48:39.825Z,101635.36
2018-11-23T15:51:09.851Z,101636.53
2018-11-23T15:53:38.705Z,101638.59
2018-11-23T15:56:07.581Z,101638.74
2018-11-23T15:58:36.424Z,101634.59
2018-11-23T16:01:05.643Z,101630.67
2018-11-23T16:03:34.415Z,101632.16
2018-11-23T16:06:03.284Z,101640.06
2018-11-23T16:08:31.704Z,101629.38
2018-11-23T16:11:00.015Z,101630.83
2018-11-23T16:13:28.420Z,101630.84
2018-11-23T16:15:56.771Z,101624.67
2018-11-23T16:18:25.926Z,101634.15
2018-11-23T16:20:54.394Z,101637.75
2018-11-23T16:23:22.877Z,101639.41
2018-11-23T16:25:51.868Z,101635.79
2018-11-23T16:28:20.310Z,101640.70
2018-11-23T16:30:50.878Z,101633.83
2018-11-23T16:33:21.651Z,101633.72
2018-11-23T16:35:50.167Z,101643.56
2018-11-23T16:38:20.355Z,101628.73
2018-11-23T16:40:50.679Z,101629.51
2018-11-23T16:43:19.687Z,101627.49
2018-11-23T16:45:48.464Z,101628.84
2018-11-23T16:48:18.400Z,101632.16
2018-11-23T16:50:47.572Z,101630.02
2018-11-23T16:53:27.824Z,101625.17
2018-11-23T16:55:56.499Z,101622.62
2018-11-23T16:58:24.953Z,101627.64
2018-11-23T17:00:53.565Z,101626.23
2018-11-23T17:03:22.661Z,101621.06
2018-11-23T17:05:52.521Z,101622.89
2018-11-23T17:08:21.004Z,101624.50
2018-11-23T17:10:49.573Z,101616.25
2018-11-23T17:13:18.102Z,101623.48
2018-11-23T17:15:46.495Z,101628.77
2018-11-23T17:18:14.990Z,101624.44
2018-11-23T17:20:43.292Z,101623.14
2018-11-23T17:23:12.362Z,101621.63
2018-11-23T17:25:40.943Z,101610.17
2018-11-23T17:28:10.433Z,101613.83
2018-11-23T17:30:39.105Z,101609.41
2018-11-23T17:33:08.456Z,101605.97
2018-11-23T17:35:36.989Z,101601.23
2018-11-23T17:38:06.110Z,101604.21
2018-11-23T17:40:37.347Z,101613.40
2018-11-23T17:43:06.152Z,101614.68
2018-11-23T17:45:34.938Z,101613.86
2018-11-23T17:48:03.357Z,101608.69
2018-11-23T17:50:33.026Z,101607.22
2018-11-23T17:53:02.226Z,101604.30
2018-11-23T17:55:31.757Z,101611.84
2018-11-23T17:58:00.084Z,101607.72
2018-11-23T18:00:38.519Z,101600.77
2018-11-23T18:03:00.629Z,101603.96
2018-11-23T18:05:30.041Z,101604.57
2018-11-23T18:07:59.050Z,101599.87
2018-11-23T18:10:28.753Z,101593.18
2018-11-23T18:12:58.116Z,101591.88
2018-11-23T18:15:28.109Z,101592.72
2018-11-23T18:17:57.350Z,101588.34
2018-11-23T18:20:26.886Z,101581.12
2018-11-23T18:22:57.167Z,101577.62
2018-11-23T18:25:28.076Z,101570.56
2018-11-23T18:28:00.087Z,101575.57
2018-11-23T18:30:32.233Z,101574.48
2018-11-23T18:33:02.284Z,101575.02
2018-11-23T18:35:30.631Z,101579.70
2018-11-23T18:37:59.249Z,101571.31
2018-11-23T18:40:36.470Z,101567.77
2018-11-23T18:42:57.336Z,101560.27
2018-11-23T18:45:25.891Z,101568.24
2018-11-23T18:47:54.476Z,101552.45
2018-11-23T18:50:23.110Z,101547.61
2018-11-23T18:52:51.671Z,101554.12
2018-11-23T18:55:20.127Z,101554.01
2018-11-23T18:57:48.617Z,101554.80
2018-11-23T19:00:18.325Z,101545.61
2018-11-23T19:02:47.518Z,101536.13
2018-11-23T19:05:21.764Z,101534.77
2018-11-23T19:07:51.288Z,101536.07
2018-11-23T19:10:19.743Z,101535.57
2018-11-23T19:12:48.169Z,101530.72
2018-11-23T19:15:25.311Z,101534.42
2018-11-23T19:17:47.947Z,101528.44
2018-11-23T19:20:19.184Z,101532.39
2018-11-23T19:22:51.129Z,101520.92
2018-11-23T19:25:19.765Z,101516.19
2018-11-23T19:27:48.140Z,101514.98
2018-11-23T19:30:28.120Z,101509.31
2018-11-23T19:32:50.326Z,101507.99
2018-11-23T19:35:18.858Z,101503.75
2018-11-23T19:37:47.288Z,101500.33
2018-11-23T19:40:16.292Z,101499.42
2018-11-23T19:42:45.440Z,101487.53
2018-11-23T19:45:16.215Z,101490.33
2018-11-23T19:47:44.729Z,101484.50
2018-11-23T19:50:16.559Z,101481.53
2018-11-23T19:52:45.159Z,101475.03
2018-11-23T19:55:15.173Z,101466.62
2018-11-23T19:57:43.581Z,101458.53
2018-11-23T20:00:27.258Z,101465.18
2018-11-23T20:02:57.350Z,101460.81
2018-11-23T20:05:26.269Z,101455.28
2018-11-23T20:07:56.441Z,101456.38
2018-11-23T20:10:26.267Z,101459.28
2018-11-23T20:12:56.641Z,101465.11
2018-11-23T20:15:25.214Z,101456.94
2018-11-23T20:17:54.522Z,101465.19
2018-11-23T20:20:23.135Z,101462.92
2018-11-23T20:22:51.640Z,101460.91
2018-11-23T20:25:20.762Z,101461.30
2018-11-23T20:27:51.047Z,101461.99
2018-11-23T20:30:20.902Z,101462.53
2018-11-23T20:32:49.366Z,101465.59
2018-11-23T20:35:20.437Z,101464.45
2018-11-23T20:37:48.856Z,101460.70
2018-11-23T20:40:19.096Z,101461.59
2018-11-23T20:42:48.143Z,101455.75
2018-11-23T20:45:16.716Z,101463.64
2018-11-23T20:47:45.387Z,101454.14
2018-11-23T20:50:15.400Z,101451.96
2018-11-23T20:52:43.730Z,101450.66
2018-11-23T20:55:19.148Z,101447.80
2018-11-23T20:57:47.733Z,101456.20
2018-11-23T21:00:17.259Z,101450.77
2018-11-23T21:02:47.096Z,101446.17
2018-11-23T21:05:17.488Z,101445.41
2018-11-23T21:07:45.857Z,101450.70
2018-11-23T21:10:29.860Z,101441.27
2018-11-23T21:12:58.285Z,101447.44
2018-11-23T21:15:29.303Z,101444.88
2018-11-23T21:17:59.890Z,101447.55
2018-11-23T21:20:28.533Z,101436.89
2018-11-23T21:22:56.962Z,101435.98
2018-11-23T21:25:25.277Z,101425.77
2018-11-23T21:27:53.968Z,101427.52
2018-11-23T21:30:23.614Z,101422.54
2018-11-23T21:32:53.860Z,101422.19
2018-11-23T21:35:22.449Z,101426.08
2018-11-23T21:37:50.985Z,101414.05
2018-11-23T21:40:20.251Z,101413.98
2018-11-23T21:42:50.038Z,101410.20
2018-11-23T21:45:19.456Z,101402.03
2018-11-23T21:47:47.781Z,101409.03
2018-11-23T21:50:24.975Z,101406.09
2018-11-23T21:52:49.121Z,101402.72
2018-11-23T21:55:21.088Z,101400.58
2018-11-23T21:57:49.847Z,101404.29
2018-11-23T22:00:18.233Z,101402.03
2018-11-23T22:02:46.621Z,101399.89
2018-11-23T22:05:15.231Z,101393.92
2018-11-23T22:07:44.748Z,101393.05
2018-11-23T22:10:19.378Z,101391.76
2018-11-23T22:12:48.845Z,101398.56
2018-11-23T22:15:23.785Z,101402.97
2018-11-23T22:17:55.937Z,101410.37
2018-11-23T22:20:25.305Z,101397.00
2018-11-23T22:22:53.714Z,101408.66
2018-11-23T22:25:23.185Z,101404.23
2018-11-23T22:27:51.888Z,101403.02
2018-11-23T22:30:27.761Z,101407.42
2018-11-23T22:32:56.337Z,101406.16
2018-11-23T22:35:27.647Z,101406.34
2018-11-23T22:37:56.873Z,101398.11
2018-11-23T22:40:25.352Z,101395.58
2018-11-23T22:42:56.679Z,101397.72
2018-11-23T22:45:25.126Z,101390.44
2018-11-23T22:47:53.594Z,101391.61
2018-11-23T22:50:25.005Z,101386.49
2018-11-23T22:52:54.527Z,101381.91
2018-11-23T22:55:22.948Z,101375.47
2018-11-23T22:57:51.332Z,101371.61
2018-11-23T23:00:30.234Z,101365.98
2018-11-23T23:02:58.733Z,101369.95
2018-11-23T23:05:27.317Z,101368.66
2018-11-23T23:07:56.095Z,101369.14
2018-11-23T23:10:24.737Z,101365.20
2018-11-23T23:12:53.189Z,101366.16
2018-11-23T23:15:21.580Z,101371.81
2018-11-23T23:17:51.673Z,101362.34
2018-11-23T23:20:21.640Z,101369.17
2018-11-23T23:22:50.596Z,101369.17
2018-11-23T23:25:19.013Z,101368.33
2018-11-23T23:27:47.388Z,101368.75
2018-11-23T23:30:21.094Z,101370.52
2018-11-23T23:32:50.641Z,101365.87
2018-11-23T23:35:19.200Z,101364.22
2018-11-23T23:37:47.468Z,101363.31
2018-11-23T23:40:19.442Z,101367.59
2018-11-23T23:42:48.376Z,101362.19
2018-11-23T23:45:18.465Z,101360.39
2018-11-23T23:47:48.207Z,101358.17
2018-11-23T23:50:20.264Z,101360.88
2018-11-23T23:52:49.926Z,101363.91
2018-11-23T23:55:21.281Z,101350.97
2018-11-23T23:57:49.822Z,101356.12
